Cambridgeport, VT (05141)

8:27 AM EDT on August 26, 2016 (GMT -0400)
South East Vermont | | Change Station

Elev 748 ft 43.20 °N, 72.48 °W | Updated 7 seconds ago

Light Rain
Light Rain Mist
68.4 °F
Feels Like 68.4 °F
N
0.0
Wind Variable Wind from SE
Gusts 0.0 mph

Today
High -- | Low -- °F
--% Chance of Precip.
Yesterday
High -- | Low -- °F
Precip. -- in
Pressure 29.96 in
Visibility 6.0 miles
Clouds Mostly Cloudy 900 ft
Mostly Cloudy 3700 ft
Overcast 4700 ft
Dew Point 68 °F
Humidity 99%
Rainfall 0.11 in
Snow Depth Not available.
6:08 AM 7:34 PM
Waning Crescent, 35% visible
SPECI KVSF 261215Z AUTO 17003KT 6SM -RA BR BKN009 BKN037 OVC047 21/19 A2996 RMK AO2 RAB05 P0000 T02060194 TSNO
Pressure 29.96 in
Visibility 6.0 miles
Clouds Mostly Cloudy 900 ft
Mostly Cloudy 3700 ft
Overcast 4700 ft
Dew Point 68 °F
Humidity 99%
Rainfall 0.11 in
Snow Depth Not available.
6:08 AM 7:34 PM
Waning Crescent, 35% visible
SPECI KVSF 261215Z AUTO 17003KT 6SM -RA BR BKN009 BKN037 OVC047 21/19 A2996 RMK AO2 RAB05 P0000 T02060194 TSNO

10-Day Weather Forecast

Almanac

Astronomy

Aug. 26, 2016 Rise Set
Actual Time
Civil Twilight
Nautical Twilight
Astronomical Twilight
Moon
Length of Visible Light
Length of Day
Tomorrow will be .
, % of the Moon is Illuminated

Today's Extremes

State Highs State Lows

Community

WunderPhotos

Upload Photos

1,935,080 photos uploaded!

WunderBlog® & News

Nearby

Air Quality

  Air Quality AQ Index Pollutant
Not available.

Snow Depth

Station Depth Elevation

Earthquake Activity

City Distance Mag. Time & Date
Minimum magnitude displayed is 2.5.

Coastal Water Temperatures

Place Temperature

Stations

Nearby Weather Stations

Station Location Temp. Windchill Dew Point Humidity Wind Precip. Elev Updated Type
                   

Watches & Warnings

There are currently no watches in effect.